sensor_id;sensor_type;location;lat;lon;timestamp;pressure;altitude;pressure_sealevel;temperature;humidity
58757;BME280;44527;47.460;19.016;2023-06-04T00:00:40;100563.94;;;13.56;62.03
58757;BME280;44527;47.460;19.016;2023-06-04T00:03:42;100555.06;;;13.57;62.19
58757;BME280;44527;47.460;19.016;2023-06-04T00:06:45;100552.09;;;13.62;62.34
58757;BME280;44527;47.460;19.016;2023-06-04T00:09:48;100558.53;;;13.47;62.27
58757;BME280;44527;47.460;19.016;2023-06-04T00:12:50;100561.34;;;13.32;61.79
58757;BME280;44527;47.460;19.016;2023-06-04T00:15:53;100554.19;;;13.46;60.44
58757;BME280;44527;47.460;19.016;2023-06-04T00:18:55;100561.63;;;13.52;60.94
58757;BME280;44527;47.460;19.016;2023-06-04T00:21:57;100565.25;;;13.27;61.92
58757;BME280;44527;47.460;19.016;2023-06-04T00:24:59;100565.19;;;13.40;61.24
58757;BME280;44527;47.460;19.016;2023-06-04T00:28:02;100559.50;;;13.57;60.53
58757;BME280;44527;47.460;19.016;2023-06-04T00:31:05;100552.91;;;13.51;58.70
58757;BME280;44527;47.460;19.016;2023-06-04T00:34:09;100559.75;;;13.54;59.65
58757;BME280;44527;47.460;19.016;2023-06-04T00:37:12;100551.97;;;13.64;58.26
58757;BME280;44527;47.460;19.016;2023-06-04T00:40:15;100543.50;;;13.83;57.69
58757;BME280;44527;47.460;19.016;2023-06-04T00:43:17;100542.16;;;13.66;58.54
58757;BME280;44527;47.460;19.016;2023-06-04T00:46:24;100551.47;;;13.59;59.50
58757;BME280;44527;47.460;19.016;2023-06-04T00:49:27;100553.53;;;13.66;59.45
58757;BME280;44527;47.460;19.016;2023-06-04T00:52:30;100552.69;;;13.66;59.40
58757;BME280;44527;47.460;19.016;2023-06-04T00:55:32;100547.66;;;13.74;60.04
58757;BME280;44527;47.460;19.016;2023-06-04T00:58:38;100551.78;;;13.78;60.18
58757;BME280;44527;47.460;19.016;2023-06-04T01:08:14;100551.00;;;14.11;57.26
58757;BME280;44527;47.460;19.016;2023-06-04T01:11:17;100546.75;;;13.97;58.63
58757;BME280;44527;47.460;19.016;2023-06-04T01:14:19;100553.13;;;14.06;57.72
58757;BME280;44527;47.460;19.016;2023-06-04T01:17:25;100543.91;;;14.12;57.78
58757;BME280;44527;47.460;19.016;2023-06-04T01:20:43;100547.25;;;14.14;57.92
58757;BME280;44527;47.460;19.016;2023-06-04T01:23:49;100533.44;;;14.10;57.43
58757;BME280;44527;47.460;19.016;2023-06-04T01:27:00;100534.69;;;14.17;57.79
58757;BME280;44527;47.460;19.016;2023-06-04T01:30:04;100548.56;;;14.19;57.23
58757;BME280;44527;47.460;19.016;2023-06-04T01:33:07;100536.94;;;14.22;57.56
58757;BME280;44527;47.460;19.016;2023-06-04T01:36:09;100551.09;;;14.10;57.85
58757;BME280;44527;47.460;19.016;2023-06-04T01:39:14;100551.59;;;14.15;56.88
58757;BME280;44527;47.460;19.016;2023-06-04T01:42:16;100556.28;;;14.11;55.48
58757;BME280;44527;47.460;19.016;2023-06-04T01:45:20;100553.25;;;14.16;54.82
58757;BME280;44527;47.460;19.016;2023-06-04T01:48:22;100561.91;;;14.18;55.65
58757;BME280;44527;47.460;19.016;2023-06-04T01:51:25;100555.91;;;14.16;54.62
58757;BME280;44527;47.460;19.016;2023-06-04T01:54:27;100551.94;;;14.21;55.62
58757;BME280;44527;47.460;19.016;2023-06-04T01:57:31;100545.56;;;14.13;56.96
58757;BME280;44527;47.460;19.016;2023-06-04T02:00:34;100546.41;;;14.13;56.43
58757;BME280;44527;47.460;19.016;2023-06-04T02:03:37;100546.41;;;14.24;56.14
58757;BME280;44527;47.460;19.016;2023-06-04T02:06:39;100553.25;;;14.16;56.71
58757;BME280;44527;47.460;19.016;2023-06-04T02:09:44;100558.19;;;14.20;56.12
58757;BME280;44527;47.460;19.016;2023-06-04T02:12:53;100558.53;;;14.16;56.43
58757;BME280;44527;47.460;19.016;2023-06-04T02:15:57;100555.91;;;14.16;55.35
58757;BME280;44527;47.460;19.016;2023-06-04T02:18:59;100559.50;;;14.15;55.58
58757;BME280;44527;47.460;19.016;2023-06-04T02:22:01;100556.59;;;14.07;54.12
58757;BME280;44527;47.460;19.016;2023-06-04T02:25:04;100562.72;;;13.96;54.02
58757;BME280;44527;47.460;19.016;2023-06-04T02:28:07;100565.59;;;13.93;54.95
58757;BME280;44527;47.460;19.016;2023-06-04T02:31:10;100563.78;;;14.05;54.55
58757;BME280;44527;47.460;19.016;2023-06-04T02:34:14;100567.75;;;14.10;54.66
58757;BME280;44527;47.460;19.016;2023-06-04T02:37:17;100562.34;;;14.00;57.20
58757;BME280;44527;47.460;19.016;2023-06-04T02:40:19;100566.66;;;13.90;57.70
58757;BME280;44527;47.460;19.016;2023-06-04T02:43:22;100563.66;;;13.84;56.96
58757;BME280;44527;47.460;19.016;2023-06-04T02:46:24;100555.37;;;13.88;57.31
58757;BME280;44527;47.460;19.016;2023-06-04T02:49:27;100551.06;;;13.87;57.58
58757;BME280;44527;47.460;19.016;2023-06-04T02:52:29;100548.78;;;13.83;57.40
58757;BME280;44527;47.460;19.016;2023-06-04T02:55:32;100550.06;;;13.77;57.68
58757;BME280;44527;47.460;19.016;2023-06-04T02:58:35;100558.25;;;13.85;55.55
58757;BME280;44527;47.460;19.016;2023-06-04T03:01:41;100554.53;;;13.88;55.20
58757;BME280;44527;47.460;19.016;2023-06-04T03:04:43;100556.44;;;13.86;56.82
58757;BME280;44527;47.460;19.016;2023-06-04T03:07:46;100544.97;;;13.87;56.79
58757;BME280;44527;47.460;19.016;2023-06-04T03:10:48;100549.28;;;13.88;55.32
58757;BME280;44527;47.460;19.016;2023-06-04T03:13:53;100555.41;;;13.99;55.61
58757;BME280;44527;47.460;19.016;2023-06-04T03:16:56;100562.78;;;13.83;59.03
58757;BME280;44527;47.460;19.016;2023-06-04T03:19:58;100569.59;;;13.63;60.56
58757;BME280;44527;47.460;19.016;2023-06-04T03:23:00;100572.56;;;13.59;60.56
58757;BME280;44527;47.460;19.016;2023-06-04T03:26:03;100560.81;;;13.51;60.86
58757;BME280;44527;47.460;19.016;2023-06-04T03:29:06;100568.38;;;13.56;59.76
58757;BME280;44527;47.460;19.016;2023-06-04T03:32:08;100567.94;;;13.62;59.99
58757;BME280;44527;47.460;19.016;2023-06-04T03:35:11;100569.91;;;13.94;59.64
58757;BME280;44527;47.460;19.016;2023-06-04T03:38:14;100568.84;;;13.96;59.65
58757;BME280;44527;47.460;19.016;2023-06-04T03:41:17;100578.59;;;14.30;59.44
58757;BME280;44527;47.460;19.016;2023-06-04T03:44:19;100579.44;;;14.30;60.51
58757;BME280;44527;47.460;19.016;2023-06-04T03:47:22;100580.72;;;14.02;61.33
58757;BME280;44527;47.460;19.016;2023-06-04T03:50:25;100592.00;;;14.15;62.15
58757;BME280;44527;47.460;19.016;2023-06-04T03:53:29;100591.88;;;14.17;62.67
58757;BME280;44527;47.460;19.016;2023-06-04T03:56:31;100587.09;;;14.44;61.82
58757;BME280;44527;47.460;19.016;2023-06-04T03:59:34;100589.53;;;14.59;61.75
58757;BME280;44527;47.460;19.016;2023-06-04T04:02:37;100597.19;;;14.51;61.95
58757;BME280;44527;47.460;19.016;2023-06-04T04:05:41;100596.97;;;14.54;61.76
58757;BME280;44527;47.460;19.016;2023-06-04T04:08:43;100596.72;;;14.45;61.82
58757;BME280;44527;47.460;19.016;2023-06-04T04:11:46;100605.22;;;14.49;61.79
58757;BME280;44527;47.460;19.016;2023-06-04T04:14:49;100609.09;;;14.56;61.25
58757;BME280;44527;47.460;19.016;2023-06-04T04:17:52;100607.06;;;14.60;60.13
58757;BME280;44527;47.460;19.016;2023-06-04T04:20:55;100609.91;;;14.90;60.48
58757;BME280;44527;47.460;19.016;2023-06-04T04:23:58;100606.84;;;15.17;60.29
58757;BME280;44527;47.460;19.016;2023-06-04T04:27:00;100604.44;;;15.26;59.71
58757;BME280;44527;47.460;19.016;2023-06-04T04:30:06;100605.69;;;15.43;58.02
58757;BME280;44527;47.460;19.016;2023-06-04T04:33:09;100602.69;;;15.79;56.14
58757;BME280;44527;47.460;19.016;2023-06-04T04:36:16;100611.25;;;16.35;53.72
58757;BME280;44527;47.460;19.016;2023-06-04T04:39:22;100608.88;;;17.32;48.77
58757;BME280;44527;47.460;19.016;2023-06-04T04:42:27;100618.00;;;19.63;45.21
58757;BME280;44527;47.460;19.016;2023-06-04T04:45:30;100624.00;;;21.78;39.61
58757;BME280;44527;47.460;19.016;2023-06-04T04:48:34;100623.97;;;23.46;33.47
58757;BME280;44527;47.460;19.016;2023-06-04T04:51:36;100624.06;;;23.29;34.42
58757;BME280;44527;47.460;19.016;2023-06-04T04:54:39;100610.75;;;22.34;35.02
58757;BME280;44527;47.460;19.016;2023-06-04T04:57:42;100620.59;;;21.27;37.14
58757;BME280;44527;47.460;19.016;2023-06-04T05:00:44;100619.06;;;20.40;40.32
58757;BME280;44527;47.460;19.016;2023-06-04T05:03:49;100621.50;;;19.63;40.77
58757;BME280;44527;47.460;19.016;2023-06-04T05:06:52;100624.34;;;18.98;42.75
58757;BME280;44527;47.460;19.016;2023-06-04T05:09:54;100630.66;;;18.60;41.63
58757;BME280;44527;47.460;19.016;2023-06-04T05:12:58;100627.13;;;18.32;45.19
58757;BME280;44527;47.460;19.016;2023-06-04T05:16:02;100627.94;;;18.32;44.21
58757;BME280;44527;47.460;19.016;2023-06-04T05:19:09;100630.06;;;18.29;44.43
58757;BME280;44527;47.460;19.016;2023-06-04T05:22:13;100630.78;;;18.11;46.12
58757;BME280;44527;47.460;19.016;2023-06-04T05:25:21;100638.47;;;18.14;45.73
58757;BME280;44527;47.460;19.016;2023-06-04T05:28:24;100644.81;;;18.04;46.83
58757;BME280;44527;47.460;19.016;2023-06-04T05:31:27;100638.44;;;18.34;45.40
58757;BME280;44527;47.460;19.016;2023-06-04T05:34:30;100643.53;;;18.08;47.51
58757;BME280;44527;47.460;19.016;2023-06-04T05:37:33;100651.63;;;18.16;46.87
58757;BME280;44527;47.460;19.016;2023-06-04T05:40:40;100652.97;;;18.30;43.92
58757;BME280;44527;47.460;19.016;2023-06-04T05:43:42;100653.41;;;18.35;45.36
58757;BME280;44527;47.460;19.016;2023-06-04T05:46:47;100654.56;;;18.60;42.84
58757;BME280;44527;47.460;19.016;2023-06-04T05:49:49;100649.34;;;18.78;43.41
58757;BME280;44527;47.460;19.016;2023-06-04T05:52:52;100652.31;;;19.02;44.39
58757;BME280;44527;47.460;19.016;2023-06-04T05:55:55;100651.31;;;19.03;41.51
58757;BME280;44527;47.460;19.016;2023-06-04T05:58:58;100655.91;;;19.11;42.77
58757;BME280;44527;47.460;19.016;2023-06-04T06:02:00;100650.78;;;19.45;40.55
58757;BME280;44527;47.460;19.016;2023-06-04T06:05:05;100645.47;;;19.63;41.88
58757;BME280;44527;47.460;19.016;2023-06-04T06:08:10;100644.94;;;21.16;37.81
58757;BME280;44527;47.460;19.016;2023-06-04T06:11:12;100648.50;;;23.57;33.19
58757;BME280;44527;47.460;19.016;2023-06-04T06:14:15;100648.38;;;24.12;31.00
58757;BME280;44527;47.460;19.016;2023-06-04T06:17:18;100646.78;;;24.02;30.03
58757;BME280;44527;47.460;19.016;2023-06-04T06:20:20;100648.16;;;24.21;31.31
58757;BME280;44527;47.460;19.016;2023-06-04T06:23:24;100650.63;;;25.48;28.73
58757;BME280;44527;47.460;19.016;2023-06-04T06:26:26;100648.72;;;24.91;28.93
58757;BME280;44527;47.460;19.016;2023-06-04T06:29:29;100650.09;;;23.90;29.85
58757;BME280;44527;47.460;19.016;2023-06-04T06:32:32;100652.28;;;23.40;31.04
58757;BME280;44527;47.460;19.016;2023-06-04T06:35:34;100671.06;;;22.53;31.64
58757;BME280;44527;47.460;19.016;2023-06-04T06:38:37;100673.75;;;21.88;33.22
58757;BME280;44527;47.460;19.016;2023-06-04T06:41:40;100674.41;;;21.57;33.28
58757;BME280;44527;47.460;19.016;2023-06-04T06:44:43;100677.22;;;21.47;32.47
58757;BME280;44527;47.460;19.016;2023-06-04T06:47:46;100680.13;;;22.36;32.84
58757;BME280;44527;47.460;19.016;2023-06-04T06:50:48;100684.78;;;24.29;29.28
58757;BME280;44527;47.460;19.016;2023-06-04T06:53:50;100696.72;;;26.37;27.34
58757;BME280;44527;47.460;19.016;2023-06-04T06:56:53;100689.03;;;26.63;27.42
58757;BME280;44527;47.460;19.016;2023-06-04T06:59:55;100692.25;;;27.89;24.43
58757;BME280;44527;47.460;19.016;2023-06-04T07:02:57;100699.16;;;26.54;25.02
58757;BME280;44527;47.460;19.016;2023-06-04T07:06:00;100693.06;;;26.73;25.96
58757;BME280;44527;47.460;19.016;2023-06-04T07:09:02;100694.25;;;26.64;26.60
58757;BME280;44527;47.460;19.016;2023-06-04T07:12:07;100707.38;;;25.96;27.37
58757;BME280;44527;47.460;19.016;2023-06-04T07:15:09;100702.44;;;26.49;26.40
58757;BME280;44527;47.460;19.016;2023-06-04T07:18:12;100698.03;;;26.76;26.63
58757;BME280;44527;47.460;19.016;2023-06-04T07:21:15;100702.41;;;28.53;25.31
58757;BME280;44527;47.460;19.016;2023-06-04T07:24:17;100701.44;;;29.44;22.74
58757;BME280;44527;47.460;19.016;2023-06-04T07:27:20;100704.72;;;31.33;21.10
58757;BME280;44527;47.460;19.016;2023-06-04T07:30:27;100708.56;;;31.86;19.90
58757;BME280;44527;47.460;19.016;2023-06-04T07:33:29;100701.66;;;31.11;20.41
58757;BME280;44527;47.460;19.016;2023-06-04T07:36:32;100687.91;;;29.51;22.47
58757;BME280;44527;47.460;19.016;2023-06-04T07:39:34;100697.75;;;29.77;22.50
58757;BME280;44527;47.460;19.016;2023-06-04T07:42:37;100693.16;;;28.87;22.86
58757;BME280;44527;47.460;19.016;2023-06-04T07:45:39;100694.34;;;27.25;24.16
58757;BME280;44527;47.460;19.016;2023-06-04T07:48:41;100701.31;;;26.72;25.00
58757;BME280;44527;47.460;19.016;2023-06-04T07:51:44;100696.91;;;26.08;26.41
58757;BME280;44527;47.460;19.016;2023-06-04T07:54:48;100695.91;;;26.65;25.46
58757;BME280;44527;47.460;19.016;2023-06-04T07:57:50;100701.37;;;27.20;25.53
58757;BME280;44527;47.460;19.016;2023-06-04T08:00:53;100705.63;;;27.49;27.39
58757;BME280;44527;47.460;19.016;2023-06-04T08:03:55;100704.97;;;27.34;24.12
58757;BME280;44527;47.460;19.016;2023-06-04T08:06:59;100700.47;;;26.65;24.94
58757;BME280;44527;47.460;19.016;2023-06-04T08:10:02;100703.84;;;26.45;24.79
58757;BME280;44527;47.460;19.016;2023-06-04T08:13:04;100712.75;;;26.80;25.68
58757;BME280;44527;47.460;19.016;2023-06-04T08:16:07;100712.97;;;26.01;26.67
58757;BME280;44527;47.460;19.016;2023-06-04T08:19:11;100705.59;;;25.45;27.77
58757;BME280;44527;47.460;19.016;2023-06-04T08:22:15;100700.00;;;24.96;27.27
58757;BME280;44527;47.460;19.016;2023-06-04T08:25:17;100705.91;;;25.57;28.55
58757;BME280;44527;47.460;19.016;2023-06-04T08:28:19;100705.59;;;25.67;25.34
58757;BME280;44527;47.460;19.016;2023-06-04T08:31:22;100711.59;;;26.05;25.17
58757;BME280;44527;47.460;19.016;2023-06-04T08:34:25;100702.69;;;25.83;26.34
58757;BME280;44527;47.460;19.016;2023-06-04T08:37:27;100707.44;;;25.81;28.46
58757;BME280;44527;47.460;19.016;2023-06-04T08:40:30;100709.28;;;26.52;28.19
58757;BME280;44527;47.460;19.016;2023-06-04T08:43:33;100709.97;;;26.61;27.18
58757;BME280;44527;47.460;19.016;2023-06-04T08:46:37;100702.84;;;27.22;27.07
58757;BME280;44527;47.460;19.016;2023-06-04T08:49:42;100705.28;;;26.20;27.16
58757;BME280;44527;47.460;19.016;2023-06-04T08:52:52;100703.28;;;25.42;28.62
58757;BME280;44527;47.460;19.016;2023-06-04T08:55:55;100699.72;;;25.06;28.77
58757;BME280;44527;47.460;19.016;2023-06-04T08:59:02;100703.97;;;24.85;28.51
58757;BME280;44527;47.460;19.016;2023-06-04T09:02:05;100699.13;;;25.25;28.48
58757;BME280;44527;47.460;19.016;2023-06-04T09:05:07;100692.44;;;24.55;30.32
58757;BME280;44527;47.460;19.016;2023-06-04T09:08:12;100701.22;;;24.49;30.49
58757;BME280;44527;47.460;19.016;2023-06-04T09:11:16;100710.34;;;23.79;32.06
58757;BME280;44527;47.460;19.016;2023-06-04T09:14:21;100703.72;;;23.90;32.13
58757;BME280;44527;47.460;19.016;2023-06-04T09:17:24;100704.25;;;23.54;31.94
58757;BME280;44527;47.460;19.016;2023-06-04T09:20:27;100703.44;;;23.22;34.18
58757;BME280;44527;47.460;19.016;2023-06-04T09:23:30;100707.25;;;23.28;34.56
58757;BME280;44527;47.460;19.016;2023-06-04T09:26:33;100703.88;;;23.03;35.40
58757;BME280;44527;47.460;19.016;2023-06-04T09:29:36;100707.78;;;22.67;35.66
58757;BME280;44527;47.460;19.016;2023-06-04T09:32:39;100708.75;;;22.83;36.30
58757;BME280;44527;47.460;19.016;2023-06-04T09:35:41;100704.03;;;23.01;36.16
58757;BME280;44527;47.460;19.016;2023-06-04T09:38:43;100708.34;;;23.10;34.66
58757;BME280;44527;47.460;19.016;2023-06-04T09:41:56;100704.13;;;23.16;33.13
58757;BME280;44527;47.460;19.016;2023-06-04T09:44:58;100704.34;;;23.37;32.49
58757;BME280;44527;47.460;19.016;2023-06-04T09:48:03;100710.03;;;23.66;33.85
58757;BME280;44527;47.460;19.016;2023-06-04T09:51:11;100712.22;;;23.70;32.61
58757;BME280;44527;47.460;19.016;2023-06-04T09:54:14;100714.94;;;23.31;33.19
58757;BME280;44527;47.460;19.016;2023-06-04T09:57:17;100709.34;;;23.17;35.01
58757;BME280;44527;47.460;19.016;2023-06-04T10:00:20;100707.87;;;22.99;36.61
58757;BME280;44527;47.460;19.016;2023-06-04T10:03:24;100709.56;;;23.00;35.91
58757;BME280;44527;47.460;19.016;2023-06-04T10:06:28;100711.28;;;22.68;36.06
58757;BME280;44527;47.460;19.016;2023-06-04T10:09:35;100714.16;;;22.58;37.92
58757;BME280;44527;47.460;19.016;2023-06-04T10:12:45;100716.97;;;22.65;37.06
58757;BME280;44527;47.460;19.016;2023-06-04T10:15:51;100719.50;;;22.58;35.91
58757;BME280;44527;47.460;19.016;2023-06-04T10:18:55;100717.53;;;22.52;37.01
58757;BME280;44527;47.460;19.016;2023-06-04T10:21:57;100720.91;;;22.38;38.16
58757;BME280;44527;47.460;19.016;2023-06-04T10:24:59;100719.72;;;22.40;38.86
58757;BME280;44527;47.460;19.016;2023-06-04T10:28:03;100703.81;;;22.55;38.52
58757;BME280;44527;47.460;19.016;2023-06-04T10:31:05;100710.66;;;22.58;39.14
58757;BME280;44527;47.460;19.016;2023-06-04T10:34:08;100702.81;;;22.48;37.67
58757;BME280;44527;47.460;19.016;2023-06-04T10:37:24;100706.66;;;22.54;38.20
58757;BME280;44527;47.460;19.016;2023-06-04T10:40:35;100709.97;;;22.56;37.95
58757;BME280;44527;47.460;19.016;2023-06-04T10:43:38;100711.19;;;22.53;37.87
58757;BME280;44527;47.460;19.016;2023-06-04T10:46:42;100715.69;;;22.53;37.30
58757;BME280;44527;47.460;19.016;2023-06-04T10:49:45;100719.50;;;22.58;35.40
58757;BME280;44527;47.460;19.016;2023-06-04T10:52:54;100719.22;;;22.53;33.95
58757;BME280;44527;47.460;19.016;2023-06-04T10:55:57;100699.19;;;22.88;33.83
58757;BME280;44527;47.460;19.016;2023-06-04T10:58:59;100709.69;;;23.06;34.85
58757;BME280;44527;47.460;19.016;2023-06-04T11:02:05;100709.13;;;23.27;36.78
58757;BME280;44527;47.460;19.016;2023-06-04T11:05:08;100712.28;;;23.31;35.64
58757;BME280;44527;47.460;19.016;2023-06-04T11:08:13;100710.81;;;23.51;33.82
58757;BME280;44527;47.460;19.016;2023-06-04T11:11:16;100717.66;;;23.85;34.46
58757;BME280;44527;47.460;19.016;2023-06-04T11:14:19;100714.87;;;23.78;34.44
58757;BME280;44527;47.460;19.016;2023-06-04T11:17:22;100708.28;;;23.81;33.93
58757;BME280;44527;47.460;19.016;2023-06-04T11:20:25;100709.69;;;24.00;34.24
58757;BME280;44527;47.460;19.016;2023-06-04T11:23:27;100707.16;;;23.98;34.81
58757;BME280;44527;47.460;19.016;2023-06-04T11:26:36;100718.81;;;24.05;35.07
58757;BME280;44527;47.460;19.016;2023-06-04T11:29:42;100714.53;;;23.96;35.54
58757;BME280;44527;47.460;19.016;2023-06-04T11:32:44;100711.75;;;23.90;34.30
58757;BME280;44527;47.460;19.016;2023-06-04T11:35:46;100711.22;;;23.94;35.66
58757;BME280;44527;47.460;19.016;2023-06-04T11:38:59;100701.47;;;23.78;35.95
58757;BME280;44527;47.460;19.016;2023-06-04T11:42:04;100710.19;;;23.95;34.74
58757;BME280;44527;47.460;19.016;2023-06-04T11:45:07;100701.37;;;23.87;35.49
58757;BME280;44527;47.460;19.016;2023-06-04T11:48:10;100706.88;;;23.39;39.15
58757;BME280;44527;47.460;19.016;2023-06-04T11:51:13;100697.41;;;23.20;38.67
58757;BME280;44527;47.460;19.016;2023-06-04T11:54:16;100698.09;;;22.66;41.32
58757;BME280;44527;47.460;19.016;2023-06-04T11:57:18;100713.00;;;22.61;43.20
58757;BME280;44527;47.460;19.016;2023-06-04T12:00:20;100705.34;;;22.41;43.06
58757;BME280;44527;47.460;19.016;2023-06-04T12:03:33;100710.22;;;22.30;42.97
58757;BME280;44527;47.460;19.016;2023-06-04T12:06:35;100719.59;;;22.25;43.51
58757;BME280;44527;47.460;19.016;2023-06-04T12:09:38;100711.56;;;22.17;45.25
58757;BME280;44527;47.460;19.016;2023-06-04T12:12:41;100709.19;;;22.06;46.51
58757;BME280;44527;47.460;19.016;2023-06-04T12:15:50;100710.53;;;22.10;45.01
58757;BME280;44527;47.460;19.016;2023-06-04T12:19:03;100706.84;;;22.11;45.14
58757;BME280;44527;47.460;19.016;2023-06-04T12:22:07;100708.22;;;22.23;46.59
58757;BME280;44527;47.460;19.016;2023-06-04T12:25:09;100710.53;;;22.18;48.38
58757;BME280;44527;47.460;19.016;2023-06-04T12:28:18;100713.72;;;22.22;47.21
58757;BME280;44527;47.460;19.016;2023-06-04T12:31:20;100700.34;;;22.38;42.35
58757;BME280;44527;47.460;19.016;2023-06-04T12:34:23;100706.12;;;22.66;42.81
58757;BME280;44527;47.460;19.016;2023-06-04T12:37:25;100705.44;;;22.81;40.19
58757;BME280;44527;47.460;19.016;2023-06-04T12:40:28;100706.47;;;23.19;39.04
58757;BME280;44527;47.460;19.016;2023-06-04T12:43:30;100700.88;;;23.29;40.88
58757;BME280;44527;47.460;19.016;2023-06-04T12:46:36;100705.97;;;23.47;40.80
58757;BME280;44527;47.460;19.016;2023-06-04T12:49:38;100699.31;;;23.74;40.29
58757;BME280;44527;47.460;19.016;2023-06-04T12:52:40;100693.47;;;23.93;37.49
58757;BME280;44527;47.460;19.016;2023-06-04T12:55:43;100694.75;;;24.35;36.71
58757;BME280;44527;47.460;19.016;2023-06-04T12:58:45;100690.91;;;24.00;36.35
58757;BME280;44527;47.460;19.016;2023-06-04T13:01:47;100689.56;;;24.19;36.83
58757;BME280;44527;47.460;19.016;2023-06-04T13:04:50;100691.34;;;24.41;34.26
58757;BME280;44527;47.460;19.016;2023-06-04T13:07:57;100687.09;;;24.32;34.80
58757;BME280;44527;47.460;19.016;2023-06-04T13:11:00;100682.19;;;24.36;36.25
58757;BME280;44527;47.460;19.016;2023-06-04T13:14:03;100687.41;;;24.14;37.42
58757;BME280;44527;47.460;19.016;2023-06-04T13:17:05;100685.66;;;24.06;34.16
58757;BME280;44527;47.460;19.016;2023-06-04T13:20:23;100675.09;;;24.05;35.57
58757;BME280;44527;47.460;19.016;2023-06-04T13:23:25;100667.19;;;24.26;34.71
58757;BME280;44527;47.460;19.016;2023-06-04T13:26:42;100665.31;;;24.50;32.63
58757;BME280;44527;47.460;19.016;2023-06-04T13:29:44;100667.34;;;24.63;33.41
58757;BME280;44527;47.460;19.016;2023-06-04T13:32:47;100658.47;;;24.62;34.93
58757;BME280;44527;47.460;19.016;2023-06-04T13:35:49;100653.53;;;24.81;34.77
58757;BME280;44527;47.460;19.016;2023-06-04T13:38:52;100655.00;;;25.13;34.42
58757;BME280;44527;47.460;19.016;2023-06-04T13:41:57;100658.16;;;25.16;32.99
58757;BME280;44527;47.460;19.016;2023-06-04T13:44:59;100655.09;;;25.05;31.99
58757;BME280;44527;47.460;19.016;2023-06-04T13:48:02;100652.66;;;25.10;32.79
58757;BME280;44527;47.460;19.016;2023-06-04T13:51:09;100648.25;;;24.87;33.21
58757;BME280;44527;47.460;19.016;2023-06-04T13:54:11;100645.66;;;24.79;34.67
58757;BME280;44527;47.460;19.016;2023-06-04T13:57:14;100648.94;;;24.60;33.50
58757;BME280;44527;47.460;19.016;2023-06-04T14:00:16;100640.97;;;24.66;33.74
58757;BME280;44527;47.460;19.016;2023-06-04T14:03:19;100640.59;;;24.54;35.21
58757;BME280;44527;47.460;19.016;2023-06-04T14:06:22;100642.72;;;24.44;35.40
58757;BME280;44527;47.460;19.016;2023-06-04T14:09:24;100642.31;;;24.33;36.27
58757;BME280;44527;47.460;19.016;2023-06-04T14:12:26;100635.75;;;24.35;34.07
58757;BME280;44527;47.460;19.016;2023-06-04T14:15:29;100631.19;;;24.21;34.83
58757;BME280;44527;47.460;19.016;2023-06-04T14:18:31;100629.16;;;24.08;35.77
58757;BME280;44527;47.460;19.016;2023-06-04T14:21:33;100632.09;;;23.98;37.06
58757;BME280;44527;47.460;19.016;2023-06-04T14:24:37;100626.16;;;23.88;36.52
58757;BME280;44527;47.460;19.016;2023-06-04T14:27:40;100637.88;;;23.87;36.76
58757;BME280;44527;47.460;19.016;2023-06-04T14:30:42;100623.47;;;23.65;35.11
58757;BME280;44527;47.460;19.016;2023-06-04T14:33:45;100630.50;;;23.66;36.92
58757;BME280;44527;47.460;19.016;2023-06-04T14:36:47;100627.41;;;23.54;36.18
58757;BME280;44527;47.460;19.016;2023-06-04T14:39:50;100622.16;;;23.38;35.92
58757;BME280;44527;47.460;19.016;2023-06-04T14:42:52;100622.97;;;23.15;38.08
58757;BME280;44527;47.460;19.016;2023-06-04T14:45:55;100618.50;;;23.08;37.64
58757;BME280;44527;47.460;19.016;2023-06-04T14:48:57;100614.50;;;23.04;38.10
58757;BME280;44527;47.460;19.016;2023-06-04T14:52:00;100620.69;;;23.04;39.14
58757;BME280;44527;47.460;19.016;2023-06-04T14:55:02;100614.03;;;23.00;39.42
58757;BME280;44527;47.460;19.016;2023-06-04T14:58:05;100614.69;;;23.02;41.19
58757;BME280;44527;47.460;19.016;2023-06-04T15:01:07;100619.09;;;22.87;39.04
58757;BME280;44527;47.460;19.016;2023-06-04T15:04:12;100609.50;;;22.92;38.93
58757;BME280;44527;47.460;19.016;2023-06-04T15:07:14;100611.22;;;22.85;38.70
58757;BME280;44527;47.460;19.016;2023-06-04T15:10:17;100606.53;;;22.87;37.18
58757;BME280;44527;47.460;19.016;2023-06-04T15:13:19;100601.41;;;22.78;39.50
58757;BME280;44527;47.460;19.016;2023-06-04T15:16:21;100596.53;;;22.81;39.29
58757;BME280;44527;47.460;19.016;2023-06-04T15:19:23;100597.38;;;22.82;39.42
58757;BME280;44527;47.460;19.016;2023-06-04T15:22:26;100582.34;;;22.81;38.27
58757;BME280;44527;47.460;19.016;2023-06-04T15:25:29;100585.00;;;22.81;37.66
58757;BME280;44527;47.460;19.016;2023-06-04T15:28:32;100588.78;;;22.94;38.18
58757;BME280;44527;47.460;19.016;2023-06-04T15:31:34;100579.25;;;22.92;39.03
58757;BME280;44527;47.460;19.016;2023-06-04T15:34:36;100593.31;;;22.86;40.73
58757;BME280;44527;47.460;19.016;2023-06-04T15:37:39;100588.50;;;22.81;41.51
58757;BME280;44527;47.460;19.016;2023-06-04T15:40:41;100596.69;;;22.80;41.66
58757;BME280;44527;47.460;19.016;2023-06-04T15:43:43;100582.44;;;22.56;42.99
58757;BME280;44527;47.460;19.016;2023-06-04T15:46:46;100581.91;;;22.61;43.05
58757;BME280;44527;47.460;19.016;2023-06-04T15:49:49;100578.31;;;22.37;43.40
58757;BME280;44527;47.460;19.016;2023-06-04T15:52:51;100570.50;;;22.28;43.90